Time;durP1;ratioP1;P1;durP2;ratioP2;P2;SDS_P1;SDS_P2;PMS_P1;PMS_P2;Temp;Humidity;BMP_temperature;BMP_pressure;BME280_temperature;BME280_humidity;BME280_pressure;Samples;Min_cycle;Max_cycle;Signal;HPM_P1;HPM_P2
2023/03/03 00:00:23;;;;;;;11.67;10.97;;;;;;;3.79;100.00;92789.28;5068467;28;20225;-79
2023/03/03 00:02:49;;;;;;;11.93;11.33;;;;;;;3.84;100.00;92795.34;5071591;28;20200;-79
2023/03/03 00:05:17;;;;;;;12.27;11.43;;;;;;;3.95;100.00;92786.75;5071777;28;20221;-79
2023/03/03 00:07:43;;;;;;;11.30;10.60;;;;;;;3.88;100.00;92791.25;5072545;28;20182;-79
2023/03/03 00:10:09;;;;;;;10.03;9.53;;;;;;;3.89;100.00;92787.66;5071597;28;20267;-78
2023/03/03 00:12:44;;;;;;;12.17;11.47;;;;;;;3.85;100.00;92781.41;5072322;28;20185;-79
2023/03/03 00:15:19;;;;;;;12.27;11.37;;;;;;;3.80;100.00;92783.88;5068396;28;20287;-79
2023/03/03 00:17:45;;;;;;;14.27;13.37;;;;;;;3.77;100.00;92794.69;5050722;28;20193;-80
2023/03/03 00:20:37;;;;;;;12.57;11.87;;;;;;;3.75;100.00;92793.34;5051892;28;20226;-79
2023/03/03 00:23:18;;;;;;;13.33;12.33;;;;;;;3.86;100.00;92793.28;5051497;28;20202;-78
2023/03/03 00:25:44;;;;;;;13.13;12.17;;;;;;;3.67;100.00;92783.41;5058322;28;20225;-79
2023/03/03 00:28:26;;;;;;;11.70;10.70;;;;;;;3.54;100.00;92784.47;5072203;28;20169;-79
2023/03/03 00:30:53;;;;;;;11.70;10.93;;;;;;;3.64;100.00;92784.66;5071552;28;20220;-80
2023/03/03 00:33:28;;;;;;;13.73;12.73;;;;;;;3.74;100.00;92782.25;5072540;28;20173;-79
2023/03/03 00:36:05;;;;;;;12.60;11.80;;;;;;;3.74;100.00;92779.66;5070874;28;20227;-78
2023/03/03 00:38:34;;;;;;;11.77;11.00;;;;;;;3.70;100.00;92786.31;5071528;28;20676;-79
2023/03/03 00:41:00;;;;;;;11.93;11.20;;;;;;;3.80;100.00;92780.53;5060081;28;20241;-78
2023/03/03 00:43:34;;;;;;;12.17;11.37;;;;;;;3.81;100.00;92757.06;5051747;28;20186;-78
2023/03/03 00:46:00;;;;;;;11.90;10.77;;;;;;;3.87;100.00;92765.66;5082977;28;20305;-80
2023/03/03 00:48:26;;;;;;;11.63;10.90;;;;;;;3.80;100.00;92765.03;5051004;28;20174;-78
2023/03/03 00:50:55;;;;;;;11.80;10.93;;;;;;;4.05;100.00;92768.81;5051191;28;20285;-78
2023/03/03 00:53:22;;;;;;;13.63;12.73;;;;;;;3.78;100.00;92744.63;5051127;28;20251;-78
2023/03/03 00:55:49;;;;;;;12.00;11.23;;;;;;;3.88;100.00;92749.16;5059003;28;20244;-78
2023/03/03 00:58:14;;;;;;;11.47;10.77;;;;;;;3.94;100.00;92753.41;5071584;28;20173;-78
2023/03/03 01:00:40;;;;;;;12.93;12.03;;;;;;;3.80;100.00;92742.56;5070871;28;20228;-79
2023/03/03 01:03:08;;;;;;;12.57;11.77;;;;;;;3.76;100.00;92731.16;5071838;28;20181;-78
2023/03/03 01:05:35;;;;;;;11.70;11.03;;;;;;;3.77;100.00;92745.63;5070678;28;20233;-79
2023/03/03 01:08:01;;;;;;;12.63;11.93;;;;;;;4.00;100.00;92745.47;5071180;28;20188;-78
2023/03/03 01:10:31;;;;;;;12.53;11.73;;;;;;;3.79;100.00;92712.63;5071121;28;20231;-78
2023/03/03 01:12:57;;;;;;;11.97;11.07;;;;;;;3.77;100.00;92724.97;5070453;28;20181;-78
2023/03/03 01:15:23;;;;;;;12.43;11.70;;;;;;;3.85;100.00;92732.34;5070600;28;20253;-78
2023/03/03 01:17:49;;;;;;;11.80;11.23;;;;;;;3.75;100.00;92715.91;5102925;28;20181;-79
2023/03/03 01:20:15;;;;;;;11.50;10.73;;;;;;;4.07;100.00;92730.63;5070231;28;20235;-79
2023/03/03 01:22:40;;;;;;;11.97;11.17;;;;;;;3.72;100.00;92691.31;5071148;28;20185;-79
2023/03/03 01:25:07;;;;;;;12.40;11.67;;;;;;;3.95;100.00;92737.66;5070324;28;22618;-78
2023/03/03 01:27:33;;;;;;;12.37;11.57;;;;;;;3.91;100.00;92731.38;5071644;28;20189;-78
2023/03/03 01:29:59;;;;;;;12.83;11.97;;;;;;;3.86;100.00;92739.06;5070373;28;20212;-78
2023/03/03 01:32:26;;;;;;;11.70;10.90;;;;;;;3.83;100.00;92715.53;5070165;28;20189;-79
2023/03/03 01:34:52;;;;;;;12.47;11.63;;;;;;;3.97;100.00;92720.13;5070389;28;20238;-79
2023/03/03 01:37:18;;;;;;;12.07;11.30;;;;;;;3.90;100.00;92729.84;5070484;28;20192;-78
2023/03/03 01:39:48;;;;;;;12.07;11.37;;;;;;;3.94;100.00;92730.16;5070996;28;20217;-78
2023/03/03 01:42:14;;;;;;;10.80;10.17;;;;;;;3.88;100.00;92706.03;5068652;28;20272;-78
2023/03/03 01:44:40;;;;;;;13.03;12.13;;;;;;;3.96;100.00;92723.72;5069630;28;20232;-78
2023/03/03 01:47:18;;;;;;;13.23;12.23;;;;;;;4.15;100.00;92729.44;5070175;28;20915;-79
2023/03/03 01:49:51;;;;;;;13.10;12.30;;;;;;;3.88;100.00;92703.47;5070808;28;20205;-78
2023/03/03 01:52:32;;;;;;;13.90;12.70;;;;;;;3.94;100.00;92705.09;5049478;28;20233;-78
2023/03/03 01:55:01;;;;;;;12.77;11.93;;;;;;;4.14;100.00;92733.03;5049649;28;20198;-81
2023/03/03 01:57:32;;;;;;;13.80;12.77;;;;;;;4.12;100.00;92728.13;5049427;28;20194;-78
2023/03/03 02:00:01;;;;;;;13.20;12.20;;;;;;;4.05;100.00;92722.31;5048986;28;20197;-78
2023/03/03 02:02:27;;;;;;;13.77;12.87;;;;;;;3.89;100.00;92686.19;5050526;28;20209;-78
2023/03/03 02:04:53;;;;;;;14.73;13.63;;;;;;;4.10;100.00;92717.22;5050345;28;20213;-78
2023/03/03 02:07:21;;;;;;;13.97;12.90;;;;;;;4.10;100.00;92724.97;5069921;28;20200;-78
2023/03/03 02:09:56;;;;;;;13.63;12.73;;;;;;;4.00;100.00;92706.72;5070377;28;20197;-79
2023/03/03 02:12:28;;;;;;;13.03;12.13;;;;;;;3.22;100.00;92566.72;5069578;28;20918;-79
2023/03/03 02:14:54;;;;;;;13.07;12.27;;;;;;;4.33;100.00;92727.38;5068643;28;20193;-79
2023/03/03 02:17:19;;;;;;;13.60;12.60;;;;;;;4.33;100.00;92724.00;5069950;28;20193;-78
2023/03/03 02:19:50;;;;;;;14.03;13.10;;;;;;;4.23;100.00;92724.66;5068760;28;20257;-79
2023/03/03 02:22:22;;;;;;;12.37;11.50;;;;;;;4.24;100.00;92728.78;5069481;28;20221;-79
2023/03/03 02:24:56;;;;;;;12.60;11.80;;;;;;;4.09;100.00;92720.84;5068344;28;20209;-77
2023/03/03 02:27:21;;;;;;;13.83;12.20;;;;;;;4.13;100.00;92721.13;5069378;28;20192;-78
2023/03/03 02:29:47;;;;;;;12.73;11.80;;;;;;;4.22;100.00;92733.41;5068991;28;20189;-76
2023/03/03 02:32:12;;;;;;;13.43;12.53;;;;;;;4.14;100.00;92728.63;5070463;28;20220;-80
2023/03/03 02:34:49;;;;;;;12.53;11.73;;;;;;;4.03;100.00;92708.84;5069293;28;20199;-78
2023/03/03 02:37:15;;;;;;;12.73;11.83;;;;;;;4.16;100.00;92728.41;5069298;28;20205;-78
2023/03/03 02:39:40;;;;;;;14.63;13.40;;;;;;;4.26;100.00;92726.75;5069835;28;20169;-78
2023/03/03 02:42:13;;;;;;;12.90;12.07;;;;;;;4.28;100.00;92724.72;5067871;28;20237;-79
2023/03/03 02:44:39;;;;;;;13.20;12.23;;;;;;;4.18;100.00;92729.75;5069059;28;20209;-78
2023/03/03 02:47:04;;;;;;;13.17;12.23;;;;;;;4.11;100.00;92705.09;5068267;28;20213;-79
2023/03/03 02:49:32;;;;;;;13.60;12.70;;;;;;;4.21;100.00;92731.84;5069869;28;20194;-78
2023/03/03 02:51:59;;;;;;;13.80;12.60;;;;;;;4.28;100.00;92726.53;5068398;28;20228;-79
2023/03/03 02:54:29;;;;;;;11.67;10.80;;;;;;;4.23;100.00;92726.44;5069425;28;20200;-78
2023/03/03 02:56:54;;;;;;;12.70;11.80;;;;;;;4.27;100.00;92723.16;5068207;28;20215;-79
2023/03/03 02:59:19;;;;;;;12.83;11.93;;;;;;;4.24;100.00;92715.88;5069269;28;20212;-77
2023/03/03 03:01:46;;;;;;;11.60;10.90;;;;;;;4.19;100.00;92723.56;5068956;28;20231;-80
2023/03/03 03:04:15;;;;;;;12.97;12.07;;;;;;;4.21;100.00;92715.56;5069173;28;20181;-78
2023/03/03 03:06:40;;;;;;;13.03;12.23;;;;;;;4.25;100.00;92717.44;5067800;28;20229;-79
2023/03/03 03:09:07;;;;;;;12.53;11.53;;;;;;;4.22;100.00;92712.75;5068950;28;20219;-79
2023/03/03 03:11:37;;;;;;;12.47;11.77;;;;;;;4.19;100.00;92708.03;5067146;28;20222;-78
2023/03/03 03:14:04;;;;;;;13.43;12.53;;;;;;;4.25;100.00;92709.69;5067120;28;20200;-78
2023/03/03 03:16:30;;;;;;;11.53;10.63;;;;;;;4.13;100.00;92706.41;5067352;28;20225;-77
2023/03/03 03:18:56;;;;;;;12.27;11.33;;;;;;;4.19;100.00;92715.00;5068813;28;20185;-78
2023/03/03 03:21:22;;;;;;;12.40;11.60;;;;;;;4.12;100.00;92719.56;5068491;28;20220;-78
2023/03/03 03:23:47;;;;;;;12.27;11.37;;;;;;;3.98;100.00;92716.53;5068868;28;20882;-78
2023/03/03 03:26:13;;;;;;;13.53;12.63;;;;;;;3.88;100.00;92698.28;5067703;28;20256;-78
2023/03/03 03:28:38;;;;;;;13.37;12.37;;;;;;;4.02;100.00;92714.25;5068102;28;20208;-77
2023/03/03 03:31:05;;;;;;;14.80;13.60;;;;;;;4.04;100.00;92709.63;5067981;28;20221;-78
2023/03/03 03:33:31;;;;;;;12.60;11.73;;;;;;;4.08;100.00;92710.72;5068757;28;20241;-78
2023/03/03 03:35:57;;;;;;;12.63;11.60;;;;;;;4.15;100.00;92706.97;5068031;28;21010;-78
2023/03/03 03:38:23;;;;;;;11.83;10.93;;;;;;;4.03;100.00;92698.50;5068384;28;20178;-78
2023/03/03 03:40:49;;;;;;;13.57;12.57;;;;;;;3.98;100.00;92706.22;5067496;28;20229;-78
2023/03/03 03:43:14;;;;;;;12.93;12.03;;;;;;;3.84;100.00;92699.78;5068741;28;20200;-77
2023/03/03 03:45:43;;;;;;;14.57;13.53;;;;;;;3.96;100.00;92699.69;5067556;28;20224;-77
2023/03/03 03:48:09;;;;;;;13.43;12.53;;;;;;;4.01;100.00;92694.59;5068699;28;20177;-77
2023/03/03 03:50:34;;;;;;;13.50;12.40;;;;;;;3.69;100.00;92650.50;5067164;28;20248;-76
2023/03/03 03:53:00;;;;;;;13.47;12.40;;;;;;;3.83;100.00;92669.81;5070405;28;20185;-86
2023/03/03 03:55:25;;;;;;;12.90;11.90;;;;;;;3.97;100.00;92696.88;5068116;28;20285;-86
2023/03/03 03:57:51;;;;;;;13.00;12.27;;;;;;;3.85;100.00;92660.03;5066592;28;20178;-85
2023/03/03 04:00:16;;;;;;;13.03;12.13;;;;;;;3.76;100.00;92676.94;5067023;28;20233;-86
2023/03/03 04:02:42;;;;;;;13.73;12.73;;;;;;;3.93;100.00;92693.22;5066563;28;20241;-86
2023/03/03 04:05:08;;;;;;;15.77;14.47;;;;;;;3.74;100.00;92667.84;5068047;28;20241;-86
2023/03/03 04:07:34;;;;;;;13.87;12.77;;;;;;;3.84;100.00;92681.72;5067905;28;20182;-86
2023/03/03 04:09:59;;;;;;;14.93;13.63;;;;;;;3.67;100.00;92662.88;5068240;28;20185;-86
2023/03/03 04:12:25;;;;;;;13.73;12.73;;;;;;;3.72;100.00;92668.09;5066068;28;20186;-85
2023/03/03 04:14:50;;;;;;;14.53;13.40;;;;;;;3.70;100.00;92664.97;5067179;28;20188;-86
2023/03/03 04:17:20;;;;;;;15.00;13.93;;;;;;;3.70;100.00;92671.94;5067714;28;20181;-86
2023/03/03 04:19:46;;;;;;;15.67;14.23;;;;;;;3.63;100.00;92686.81;5067955;28;20669;-86
2023/03/03 04:22:12;;;;;;;15.57;14.23;;;;;;;3.69;100.00;92678.88;5067833;28;20256;-86
2023/03/03 04:24:38;;;;;;;14.03;12.77;;;;;;;3.68;100.00;92684.28;5068160;28;20248;-84
2023/03/03 04:27:04;;;;;;;15.70;14.20;;;;;;;3.72;100.00;92672.50;5068174;28;20256;-86
2023/03/03 04:29:29;;;;;;;15.10;13.90;;;;;;;3.66;100.00;92683.75;5068290;28;20181;-86
2023/03/03 04:31:55;;;;;;;14.10;13.10;;;;;;;3.37;100.00;92641.75;5067417;28;20236;-86
2023/03/03 04:34:20;;;;;;;14.63;13.43;;;;;;;3.30;100.00;92641.91;5068245;28;20182;-86
2023/03/03 04:36:46;;;;;;;14.97;13.77;;;;;;;3.47;100.00;92657.38;5067390;28;20216;-86
2023/03/03 04:39:11;;;;;;;13.83;12.83;;;;;;;3.79;100.00;92680.84;5067202;28;20190;-86
2023/03/03 04:41:37;;;;;;;14.20;13.20;;;;;;;3.62;100.00;92673.13;5067804;28;20238;-86
2023/03/03 04:44:02;;;;;;;14.03;12.90;;;;;;;3.70;100.00;92667.56;5083325;28;20174;-86
2023/03/03 04:46:28;;;;;;;12.90;11.93;;;;;;;3.78;100.00;92674.91;5068820;28;20233;-83
2023/03/03 04:48:54;;;;;;;13.53;12.53;;;;;;;3.74;100.00;92678.97;5069335;28;20194;-84
2023/03/03 04:51:19;;;;;;;13.40;12.50;;;;;;;3.76;100.00;92668.41;5072737;28;20228;-83
2023/03/03 04:53:45;;;;;;;13.33;12.37;;;;;;;3.87;100.00;92673.50;5071814;28;20194;-84
2023/03/03 04:56:10;;;;;;;11.97;11.20;;;;;;;3.81;100.00;92658.97;5070918;28;20292;-84
2023/03/03 04:58:36;;;;;;;12.40;11.50;;;;;;;3.85;100.00;92680.69;5071861;28;20193;-84
2023/03/03 05:01:01;;;;;;;13.00;12.10;;;;;;;3.85;100.00;92685.06;5060903;28;20236;-83
2023/03/03 05:03:27;;;;;;;14.13;13.10;;;;;;;3.65;100.00;92670.06;5051580;28;20186;-83
2023/03/03 05:05:52;;;;;;;13.43;12.63;;;;;;;3.64;100.00;92665.94;5050471;28;20218;-83
2023/03/03 05:08:17;;;;;;;14.30;13.27;;;;;;;3.88;100.00;92685.38;5051617;28;20179;-83
2023/03/03 05:10:43;;;;;;;13.63;12.77;;;;;;;3.77;100.00;92688.81;5058467;28;20259;-83
2023/03/03 05:13:09;;;;;;;13.87;12.47;;;;;;;3.86;100.00;92676.31;5069693;28;20213;-84
2023/03/03 05:15:34;;;;;;;13.13;12.33;;;;;;;3.88;100.00;92690.56;5064407;28;20232;-84
2023/03/03 05:17:59;;;;;;;12.80;11.67;;;;;;;3.86;100.00;92671.91;5051840;28;20224;-82
2023/03/03 05:20:25;;;;;;;12.43;11.63;;;;;;;3.82;100.00;92691.50;5056616;28;20260;-84
2023/03/03 05:22:51;;;;;;;13.73;12.73;;;;;;;3.91;100.00;92689.28;5070613;28;20182;-84
2023/03/03 05:25:16;;;;;;;12.80;11.90;;;;;;;3.98;100.00;92674.41;5070358;28;20221;-85
2023/03/03 05:27:42;;;;;;;12.27;11.30;;;;;;;3.97;100.00;92686.53;5071323;28;20185;-84
2023/03/03 05:30:11;;;;;;;12.53;11.73;;;;;;;3.91;100.00;92690.06;5069994;28;20221;-86
2023/03/03 05:32:36;;;;;;;13.43;12.47;;;;;;;3.86;100.00;92697.75;5070903;28;20184;-84
2023/03/03 05:35:03;;;;;;;13.50;12.50;;;;;;;3.91;100.00;92695.25;5069446;28;20205;-83
2023/03/03 05:37:28;;;;;;;13.03;12.13;;;;;;;3.89;100.00;92686.94;5070869;28;20249;-82
2023/03/03 05:39:54;;;;;;;13.57;12.43;;;;;;;4.10;100.00;92688.81;5070496;28;20194;-83
2023/03/03 05:42:19;;;;;;;13.93;12.70;;;;;;;4.13;100.00;92701.25;5070478;28;20185;-85
2023/03/03 05:44:45;;;;;;;13.43;12.07;;;;;;;4.08;100.00;92674.53;5069832;28;20201;-86
2023/03/03 05:47:10;;;;;;;12.17;11.27;;;;;;;4.11;100.00;92703.28;5049704;28;20233;-86
2023/03/03 05:49:35;;;;;;;13.00;12.10;;;;;;;3.81;100.00;92697.69;5053016;28;20201;-83
2023/03/03 05:52:01;;;;;;;14.30;13.20;;;;;;;4.23;100.00;92698.81;5049964;28;20222;-84
2023/03/03 05:54:26;;;;;;;13.23;12.23;;;;;;;4.13;100.00;92690.13;5052891;28;20270;-84
2023/03/03 05:56:52;;;;;;;13.10;12.13;;;;;;;4.31;100.00;92700.22;5050135;28;20238;-84
2023/03/03 05:59:18;;;;;;;12.47;11.57;;;;;;;4.24;100.00;92697.78;5049295;28;20221;-84
2023/03/03 06:01:44;;;;;;;12.70;12.00;;;;;;;4.49;100.00;92700.72;5050069;28;20222;-85
2023/03/03 06:04:09;;;;;;;14.57;13.47;;;;;;;4.24;100.00;92708.13;5083053;28;20186;-84
2023/03/03 06:06:34;;;;;;;13.20;12.37;;;;;;;3.78;100.00;92705.91;5049824;28;20267;-84
2023/03/03 06:09:00;;;;;;;13.50;12.43;;;;;;;3.78;100.00;92687.03;5049533;28;20191;-84
2023/03/03 06:11:25;;;;;;;14.80;13.60;;;;;;;4.14;100.00;92705.38;5048992;28;20226;-86
2023/03/03 06:13:50;;;;;;;13.37;12.37;;;;;;;4.25;100.00;92704.50;5050434;28;20186;-84
2023/03/03 06:16:16;;;;;;;12.73;11.83;;;;;;;4.31;100.00;92708.72;5050078;28;20236;-84
2023/03/03 06:18:42;;;;;;;12.17;11.27;;;;;;;4.29;100.00;92694.50;5049998;28;20190;-83
2023/03/03 06:21:07;;;;;;;12.50;11.70;;;;;;;4.67;100.00;92715.13;5059412;28;20228;-85
2023/03/03 06:23:33;;;;;;;12.77;11.77;;;;;;;4.85;100.00;92712.28;5070183;28;20249;-86
2023/03/03 06:25:58;;;;;;;13.13;12.20;;;;;;;4.84;100.00;92721.81;5069389;28;20229;-73
2023/03/03 06:28:23;;;;;;;13.90;12.77;;;;;;;4.84;100.00;92708.13;5070210;28;20280;-73
2023/03/03 06:30:53;;;;;;;13.60;12.57;;;;;;;4.83;100.00;92720.28;5068904;28;20254;-74
2023/03/03 06:33:18;;;;;;;14.80;13.60;;;;;;;4.82;100.00;92718.69;5066747;28;20189;-73
2023/03/03 06:35:47;;;;;;;12.80;11.90;;;;;;;4.77;100.00;92721.22;5069046;28;20245;-71
2023/03/03 06:38:16;;;;;;;13.80;12.80;;;;;;;4.80;100.00;92710.41;5068528;28;20262;-72
2023/03/03 06:40:41;;;;;;;14.07;12.97;;;;;;;4.72;100.00;92720.38;5068528;28;20240;-72
2023/03/03 06:43:07;;;;;;;14.60;13.50;;;;;;;4.77;100.00;92723.03;5068577;28;20185;-73
2023/03/03 06:45:32;;;;;;;13.20;12.13;;;;;;;4.93;100.00;92714.44;5067794;28;20221;-72
2023/03/03 06:47:57;;;;;;;14.03;12.83;;;;;;;4.96;100.00;92732.06;5068315;28;20243;-72
2023/03/03 06:50:23;;;;;;;13.83;12.80;;;;;;;5.05;100.00;92722.06;5068004;28;20894;-72
2023/03/03 06:52:49;;;;;;;13.77;12.73;;;;;;;4.89;100.00;92732.25;5067244;28;20197;-71
2023/03/03 06:55:22;;;;;;;14.07;13.07;;;;;;;4.95;100.00;92733.84;5066715;28;20225;-72
2023/03/03 06:57:48;;;;;;;14.27;13.07;;;;;;;4.87;100.00;92730.94;5066665;28;20189;-72
2023/03/03 07:00:22;;;;;;;14.90;13.50;;;;;;;5.26;100.00;92731.63;5067661;28;20236;-73
2023/03/03 07:03:10;;;;;;;14.97;13.77;;;;;;;5.13;100.00;92729.38;5069159;28;20193;-71
2023/03/03 07:05:36;;;;;;;14.00;13.00;;;;;;;5.30;99.73;92738.66;5064737;28;20233;-72
2023/03/03 07:08:02;;;;;;;13.90;12.90;;;;;;;5.19;99.72;92731.00;5068476;28;20276;-72
2023/03/03 07:10:29;;;;;;;14.00;12.90;;;;;;;5.24;100.00;92737.03;5066753;28;20292;-71
2023/03/03 07:13:00;;;;;;;13.70;12.70;;;;;;;5.52;99.66;92734.22;5067235;28;20189;-72
2023/03/03 07:15:33;;;;;;;13.07;12.17;;;;;;;5.54;98.90;92734.75;5067894;28;20255;-72
2023/03/03 07:17:59;;;;;;;14.37;13.37;;;;;;;5.42;99.38;92738.50;5067950;28;20189;-72
2023/03/03 07:20:42;;;;;;;13.97;12.90;;;;;;;5.32;100.00;92733.22;5066944;28;20225;-77
2023/03/03 07:23:29;;;;;;;13.70;12.70;;;;;;;5.37;99.47;92735.88;5067458;28;20227;-75
2023/03/03 07:25:55;;;;;;;17.57;15.97;;;;;;;5.18;100.00;92744.97;5066664;28;20229;-76
2023/03/03 07:28:30;;;;;;;15.70;14.33;;;;;;;5.18;100.00;92734.63;5067714;28;20189;-74
2023/03/03 07:30:56;;;;;;;16.00;14.40;;;;;;;5.16;100.00;92724.53;5064176;28;20221;-74
2023/03/03 07:33:34;;;;;;;15.97;14.37;;;;;;;5.48;100.00;92733.13;5067540;28;20193;-76
2023/03/03 07:36:02;;;;;;;14.93;13.53;;;;;;;5.37;98.51;92720.34;5067263;28;20246;-82
2023/03/03 07:38:37;;;;;;;14.23;13.03;;;;;;;5.20;99.04;92719.66;5067980;28;20189;-77
2023/03/03 07:41:10;;;;;;;15.33;13.93;;;;;;;5.26;99.38;92734.22;5065710;28;20225;-85
2023/03/03 07:44:05;;;;;;;13.87;12.70;;;;;;;5.20;100.00;92727.41;5068208;28;20189;-79
2023/03/03 07:46:41;;;;;;;15.80;14.43;;;;;;;5.18;100.00;92732.03;5052080;28;20229;-78
2023/03/03 07:49:35;;;;;;;16.53;15.23;;;;;;;5.27;99.71;92726.19;5066275;28;20193;-80
2023/03/03 07:52:16;;;;;;;15.97;14.77;;;;;;;5.17;100.00;92730.50;5066389;28;20241;-82
2023/03/03 07:54:44;;;;;;;15.60;14.20;;;;;;;5.16;100.00;92727.09;5068134;28;20216;-75
2023/03/03 07:57:10;;;;;;;14.97;13.63;;;;;;;5.27;100.00;92733.16;5065603;28;20232;-74
2023/03/03 07:59:38;;;;;;;16.40;14.97;;;;;;;5.34;100.00;92721.59;5065648;28;20197;-75
2023/03/03 08:02:22;;;;;;;16.40;15.00;;;;;;;5.40;100.00;92720.63;5066681;28;20305;-70
2023/03/03 08:04:51;;;;;;;15.80;14.40;;;;;;;5.59;98.22;92719.25;5066356;28;20225;-68
2023/03/03 08:07:18;;;;;;;18.10;16.47;;;;;;;5.45;99.67;92725.09;5066324;28;20262;-73
2023/03/03 08:09:49;;;;;;;16.37;15.03;;;;;;;5.52;98.92;92726.44;5068083;28;20947;-81
2023/03/03 08:12:40;;;;;;;16.53;15.27;;;;;;;5.38;100.00;92724.47;5044612;28;20214;-70
2023/03/03 08:15:24;;;;;;;16.23;14.87;;;;;;;5.48;100.00;92722.00;5046127;28;20205;-70
2023/03/03 08:17:52;;;;;;;16.63;15.33;;;;;;;5.36;100.00;92722.16;5045193;28;21031;-70
2023/03/03 08:20:36;;;;;;;16.57;15.13;;;;;;;5.36;100.00;92729.13;5046372;28;20226;-70
2023/03/03 08:23:01;;;;;;;16.13;14.83;;;;;;;5.35;99.56;92730.94;5079007;28;20221;-69
2023/03/03 08:25:27;;;;;;;16.63;15.33;;;;;;;5.27;99.85;92708.09;5051033;28;20241;-70
2023/03/03 08:27:52;;;;;;;16.60;15.20;;;;;;;5.39;100.00;92713.09;5051424;28;20246;-70
2023/03/03 08:30:18;;;;;;;15.87;14.77;;;;;;;5.56;97.96;92718.94;5051055;28;20243;-70
2023/03/03 08:32:43;;;;;;;15.77;14.47;;;;;;;5.42;97.94;92717.78;5050555;28;20196;-65
2023/03/03 08:35:09;;;;;;;14.40;13.23;;;;;;;5.61;99.39;92719.81;5050642;28;20259;-66
2023/03/03 08:37:34;;;;;;;16.00;14.57;;;;;;;5.75;98.82;92707.22;5051029;28;20188;-67
2023/03/03 08:39:59;;;;;;;16.30;14.80;;;;;;;5.58;99.20;92714.31;5050737;28;20217;-72
2023/03/03 08:42:25;;;;;;;16.13;14.87;;;;;;;5.70;99.04;92714.94;5049242;28;20182;-71
2023/03/03 08:44:50;;;;;;;15.07;13.90;;;;;;;5.87;99.06;92710.44;5050049;28;20213;-71
2023/03/03 08:47:15;;;;;;;15.17;13.87;;;;;;;5.98;98.94;92715.47;5051420;28;20189;-72
2023/03/03 08:49:41;;;;;;;15.00;13.90;;;;;;;6.21;97.10;92717.72;5048065;28;20213;-71
2023/03/03 08:52:06;;;;;;;15.53;14.13;;;;;;;6.02;98.11;92720.94;5044944;28;20245;-71
2023/03/03 08:54:32;;;;;;;16.40;15.00;;;;;;;5.93;97.25;92719.84;5048430;28;20244;-71
2023/03/03 08:56:57;;;;;;;16.93;15.37;;;;;;;5.59;99.79;92723.66;5049316;28;20241;-74
2023/03/03 08:59:22;;;;;;;16.00;14.50;;;;;;;5.68;98.43;92722.19;5047007;28;20198;-70
2023/03/03 09:01:48;;;;;;;17.30;15.80;;;;;;;5.72;98.90;92724.03;5048462;28;20226;-70
2023/03/03 09:04:13;;;;;;;16.80;15.50;;;;;;;5.88;97.29;92723.16;5049541;28;20189;-69
2023/03/03 09:06:39;;;;;;;17.57;16.10;;;;;;;5.83;98.35;92719.75;5049662;28;20249;-70
2023/03/03 09:09:05;;;;;;;16.37;14.90;;;;;;;5.99;99.34;92719.63;5063190;28;20191;-73
2023/03/03 09:11:31;;;;;;;15.60;14.30;;;;;;;6.16;98.21;92724.69;5050194;28;20257;-73
2023/03/03 09:14:09;;;;;;;16.47;14.87;;;;;;;6.15;97.94;92713.53;5049202;28;20193;-73
2023/03/03 09:16:38;;;;;;;17.63;15.93;;;;;;;6.27;96.02;92713.38;5048707;28;20225;-75
2023/03/03 09:19:31;;;;;;;17.23;15.73;;;;;;;6.10;94.90;92715.31;5049746;28;20194;-73
2023/03/03 09:22:02;;;;;;;16.80;15.30;;;;;;;5.99;98.35;92716.28;5049229;28;20241;-73
2023/03/03 09:24:35;;;;;;;16.63;15.33;;;;;;;6.18;98.17;92720.81;5048620;28;20226;-73
2023/03/03 09:27:01;;;;;;;16.33;14.73;;;;;;;6.08;98.24;92701.81;5048740;28;20344;-71
2023/03/03 09:29:36;;;;;;;16.47;14.90;;;;;;;6.19;98.24;92717.19;5047360;28;20186;-85
2023/03/03 09:32:16;;;;;;;15.93;14.53;;;;;;;5.98;99.28;92702.53;5050859;28;20213;-87
2023/03/03 09:34:42;;;;;;;16.80;15.23;;;;;;;5.94;98.40;92706.66;5082595;28;20261;-86
2023/03/03 09:37:13;;;;;;;17.67;14.93;;;;;;;6.25;98.77;92712.81;5064203;28;20245;-86
2023/03/03 09:39:39;;;;;;;16.17;14.70;;;;;;;6.12;97.56;92701.06;5049609;28;20234;-85
2023/03/03 09:42:18;;;;;;;17.20;15.77;;;;;;;5.88;100.00;92688.72;5049573;28;20232;-84
2023/03/03 09:44:50;;;;;;;16.73;15.10;;;;;;;5.72;100.00;92687.00;5050914;28;20794;-86
2023/03/03 09:47:21;;;;;;;19.03;16.93;;;;;;;6.01;100.00;92717.56;5070572;28;20602;-85
2023/03/03 09:50:01;;;;;;;18.10;16.30;;;;;;;5.82;100.00;92718.97;5068488;28;20181;-85
2023/03/03 09:52:58;;;;;;;19.60;17.77;;;;;;;5.99;100.00;92718.84;5069648;28;20209;-85
2023/03/03 09:55:40;;;;;;;17.47;15.87;;;;;;;6.14;100.00;92716.38;5070077;28;20964;-85
2023/03/03 09:58:24;;;;;;;18.17;16.50;;;;;;;6.22;99.23;92714.13;5070051;28;20174;-86
2023/03/03 10:00:49;;;;;;;17.93;16.17;;;;;;;6.26;98.96;92715.16;5073731;28;20237;-84
2023/03/03 10:03:26;;;;;;;18.03;16.30;;;;;;;6.11;99.91;92712.47;5070859;28;20196;-86
2023/03/03 10:06:00;;;;;;;16.90;15.30;;;;;;;6.27;96.48;92703.00;5069139;28;20255;-85
2023/03/03 10:09:02;;;;;;;17.63;15.77;;;;;;;6.28;96.24;92712.31;5068829;28;20184;-86
2023/03/03 10:11:38;;;;;;;17.73;15.90;;;;;;;6.17;97.07;92708.09;5067268;28;20225;-86
2023/03/03 10:19:35;;;;;;;18.63;16.80;;;;;;;5.82;100.00;92707.84;5143883;27;20303;-86
2023/03/03 10:22:19;;;;;;;19.67;17.57;;;;;;;5.63;100.00;92714.38;5088756;27;20691;-87
2023/03/03 10:25:14;;;;;;;18.10;16.40;;;;;;;5.77;100.00;92698.19;5085983;28;20193;-86
2023/03/03 10:28:00;;;;;;;18.57;16.80;;;;;;;5.78;100.00;92701.53;5085263;28;20204;-82
2023/03/03 10:30:52;;;;;;;17.83;16.13;;;;;;;5.68;100.00;92681.53;5083613;28;20248;-82
2023/03/03 10:33:30;;;;;;;18.37;16.57;;;;;;;5.71;100.00;92695.81;5100657;28;20212;-86
2023/03/03 10:36:20;;;;;;;18.80;17.00;;;;;;;5.62;100.00;92689.53;5069601;28;20229;-86
2023/03/03 10:38:57;;;;;;;19.70;17.73;;;;;;;5.72;100.00;92692.97;5070692;28;20200;-86
2023/03/03 10:41:33;;;;;;;18.33;16.60;;;;;;;5.98;100.00;92686.97;5069516;28;20244;-85
2023/03/03 10:44:04;;;;;;;18.27;16.67;;;;;;;6.16;100.00;92691.00;5066460;28;20195;-85
2023/03/03 10:46:57;;;;;;;19.20;17.50;;;;;;;5.98;100.00;92675.81;5065855;28;20244;-81
2023/03/03 10:50:11;;;;;;;20.27;18.47;;;;;;;6.02;98.45;92689.84;5062583;28;20257;-78
2023/03/03 10:52:40;;;;;;;19.23;17.43;;;;;;;6.03;98.67;92662.91;5072459;28;20243;-81
2023/03/03 10:55:43;;;;;;;19.10;17.40;;;;;;;6.12;99.48;92687.31;5082993;28;20268;-83
2023/03/03 10:58:20;;;;;;;18.83;17.03;;;;;;;6.32;98.05;92690.03;5083541;28;20729;-79
2023/03/03 11:00:54;;;;;;;18.90;17.00;;;;;;;6.19;97.24;92683.50;5083258;28;20225;-82
2023/03/03 11:03:19;;;;;;;20.47;18.67;;;;;;;6.22;98.30;92682.22;5080421;28;20189;-86
2023/03/03 11:05:51;;;;;;;19.80;17.90;;;;;;;6.17;97.96;92666.63;5082809;28;20228;-76
2023/03/03 11:08:33;;;;;;;20.53;18.63;;;;;;;6.25;97.40;92673.94;5082732;28;20200;-73
2023/03/03 11:11:08;;;;;;;21.40;19.40;;;;;;;6.15;96.77;92674.66;5082716;28;20233;-77
2023/03/03 11:13:37;;;;;;;21.80;19.80;;;;;;;6.17;97.03;92682.97;5113724;28;20195;-76
2023/03/03 11:16:14;;;;;;;21.07;18.97;;;;;;;6.00;99.08;92666.00;5085655;28;20249;-74
2023/03/03 11:19:01;;;;;;;19.83;17.93;;;;;;;5.77;100.00;92648.19;5061329;28;20233;-76
2023/03/03 11:21:59;;;;;;;21.70;18.47;;;;;;;5.60;100.00;92661.28;5072050;28;20228;-76
2023/03/03 11:24:41;;;;;;;19.90;18.10;;;;;;;5.51;100.00;92638.69;5072998;28;20198;-76
2023/03/03 11:27:22;;;;;;;20.27;18.37;;;;;;;5.35;100.00;92652.50;5112076;28;20234;-75
2023/03/03 11:29:56;;;;;;;20.93;18.73;;;;;;;5.62;100.00;92661.78;5066351;28;20197;-75
2023/03/03 11:32:42;;;;;;;20.07;18.07;;;;;;;5.64;100.00;92658.97;5047270;28;20213;-75
2023/03/03 11:35:17;;;;;;;21.50;19.40;;;;;;;5.64;100.00;92661.53;5049220;28;20241;-78
2023/03/03 11:38:08;;;;;;;23.10;20.70;;;;;;;5.80;100.00;92658.84;5048839;28;20217;-77